Time;durP1;ratioP1;P1;durP2;ratioP2;P2;SDS_P1;SDS_P2;PMS_P1;PMS_P2;Temp;Humidity;BMP_temperature;BMP_pressure;BME280_temperature;BME280_humidity;BME280_pressure;Samples;Min_cycle;Max_cycle;Signal;HPM_P1;HPM_P2
2022/04/18 00:01:09;;;;;;;;;;;13.50;54.00;;;;;;4967614;28;19921;-68
2022/04/18 00:03:35;;;;;;;;;;;13.50;54.50;;;;;;4970478;28;19915;-69
2022/04/18 00:06:01;;;;;;;;;;;13.40;54.30;;;;;;4968987;28;20014;-68
2022/04/18 00:08:26;;;;;;;;;;;13.40;53.90;;;;;;4964373;28;20389;-68
2022/04/18 00:10:52;;;;;;;;;;;13.40;54.10;;;;;;4965372;28;19994;-67
2022/04/18 00:13:17;;;;;;;;;;;13.40;53.90;;;;;;4967661;28;19922;-68
2022/04/18 00:15:43;;;;;;;;;;;13.30;54.40;;;;;;4959047;28;20000;-66
2022/04/18 00:18:08;;;;;;;;;;;13.30;53.70;;;;;;4964922;28;19915;-67
2022/04/18 00:20:34;;;;;;;;;;;13.30;54.40;;;;;;4964539;28;20372;-67
2022/04/18 00:22:59;;;;;;;;;;;13.30;54.30;;;;;;4966531;28;19937;-66
2022/04/18 00:25:25;;;;;;;;;;;13.30;54.30;;;;;;4966941;28;19918;-68
2022/04/18 00:27:50;;;;;;;;;;;13.30;54.10;;;;;;4958408;28;19960;-69
2022/04/18 00:30:16;;;;;;;;;;;13.30;54.50;;;;;;4967432;28;19952;-68
2022/04/18 00:32:42;;;;;;;;;;;13.30;54.40;;;;;;4963489;28;20007;-68
2022/04/18 00:35:07;;;;;;;;;;;13.20;54.40;;;;;;4967470;28;19958;-68
2022/04/18 00:37:36;;;;;;;;;;;13.20;54.60;;;;;;4971431;28;19914;-68
2022/04/18 00:40:02;;;;;;;;;;;13.20;55.20;;;;;;4970758;28;20184;-67
2022/04/18 00:42:28;;;;;;;;;;;13.20;54.80;;;;;;4971415;28;19953;-69
2022/04/18 00:44:54;;;;;;;;;;;13.10;54.90;;;;;;4972252;28;19974;-66
2022/04/18 00:47:19;;;;;;;;;;;13.10;54.60;;;;;;4971719;28;20286;-67
2022/04/18 00:49:45;;;;;;;;;;;13.10;54.20;;;;;;4971262;28;19922;-68
2022/04/18 00:52:11;;;;;;;;;;;13.10;54.30;;;;;;4971376;28;19961;-67
2022/04/18 00:54:36;;;;;;;;;;;13.10;54.10;;;;;;4971183;28;20020;-68
2022/04/18 00:57:02;;;;;;;;;;;13.00;53.80;;;;;;4972025;28;19910;-68
2022/04/18 00:59:29;;;;;;;;;;;13.00;54.10;;;;;;4971332;28;19914;-68
2022/04/18 01:01:55;;;;;;;;;;;12.90;54.20;;;;;;4971635;28;19969;-68
2022/04/18 01:04:21;;;;;;;;;;;12.90;53.90;;;;;;4971176;28;19914;-67
2022/04/18 01:06:47;;;;;;;;;;;13.00;54.00;;;;;;4966953;28;19918;-67
2022/04/18 01:09:12;;;;;;;;;;;12.90;53.90;;;;;;4958958;28;20336;-68
2022/04/18 01:11:38;;;;;;;;;;;12.90;54.00;;;;;;4971394;28;19910;-67
2022/04/18 01:14:04;;;;;;;;;;;12.90;54.00;;;;;;4963348;28;19922;-68
2022/04/18 01:16:29;;;;;;;;;;;12.80;54.10;;;;;;4962090;28;19921;-68
2022/04/18 01:18:57;;;;;;;;;;;12.80;54.50;;;;;;4966823;28;20294;-70
2022/04/18 01:21:22;;;;;;;;;;;12.80;55.00;;;;;;4958885;28;19921;-68
2022/04/18 01:23:48;;;;;;;;;;;12.80;54.50;;;;;;4969326;28;19911;-69
2022/04/18 01:29:03;;;;;;;;;;;12.70;55.00;;;;;;4965957;28;20443;-68
2022/04/18 01:31:30;;;;;;;;;;;12.70;54.80;;;;;;4966396;28;19918;-68
2022/04/18 01:33:56;;;;;;;;;;;12.60;55.40;;;;;;4958770;28;19937;-68
2022/04/18 01:36:21;;;;;;;;;;;12.60;54.90;;;;;;4966961;28;19910;-69
2022/04/18 01:38:47;;;;;;;;;;;12.50;54.70;;;;;;4961771;28;19906;-68
2022/04/18 01:41:12;;;;;;;;;;;12.50;55.40;;;;;;4967303;28;20001;-68
2022/04/18 01:43:38;;;;;;;;;;;12.50;54.70;;;;;;4971398;28;19918;-67
2022/04/18 01:46:03;;;;;;;;;;;12.40;55.70;;;;;;4970813;28;19929;-69
2022/04/18 01:48:29;;;;;;;;;;;12.40;57.20;;;;;;4969873;28;19922;-68
2022/04/18 01:50:54;;;;;;;;;;;12.40;56.50;;;;;;4972696;28;20371;-69
2022/04/18 01:53:20;;;;;;;;;;;12.30;56.10;;;;;;4973830;28;19922;-68
2022/04/18 01:55:45;;;;;;;;;;;12.20;56.50;;;;;;4974289;28;19942;-69
2022/04/18 01:58:11;;;;;;;;;;;12.20;56.30;;;;;;4974184;28;20001;-68
2022/04/18 02:00:36;;;;;;;;;;;12.20;56.20;;;;;;4974423;28;19929;-68
2022/04/18 02:03:02;;;;;;;;;;;12.10;55.90;;;;;;4974997;28;19937;-69
2022/04/18 02:05:27;;;;;;;;;;;12.10;56.20;;;;;;4973894;28;19918;-67
2022/04/18 02:07:53;;;;;;;;;;;12.10;56.40;;;;;;4974211;28;20292;-66
2022/04/18 02:10:18;;;;;;;;;;;12.00;56.90;;;;;;4973769;28;20026;-68
2022/04/18 02:12:44;;;;;;;;;;;12.00;56.50;;;;;;4974433;28;19930;-67
2022/04/18 02:15:09;;;;;;;;;;;12.00;57.20;;;;;;4974595;28;19965;-69
2022/04/18 02:17:35;;;;;;;;;;;11.90;57.00;;;;;;4988920;28;19964;-66
2022/04/18 02:20:00;;;;;;;;;;;11.90;56.90;;;;;;4973869;28;19969;-65
2022/04/18 02:22:27;;;;;;;;;;;11.90;56.40;;;;;;4974054;28;19914;-68
2022/04/18 02:24:55;;;;;;;;;;;11.90;56.60;;;;;;4973626;28;19918;-67
2022/04/18 02:27:21;;;;;;;;;;;11.90;57.00;;;;;;4974046;28;19917;-68
2022/04/18 02:29:46;;;;;;;;;;;11.80;57.90;;;;;;4974561;28;20271;-68
2022/04/18 02:34:56;;;;;;;;;;;11.70;57.20;;;;;;4973320;28;20033;-68
2022/04/18 02:37:21;;;;;;;;;;;11.70;56.80;;;;;;4972652;28;20001;-67
2022/04/18 02:39:46;;;;;;;;;;;11.70;57.50;;;;;;4972994;28;19969;-67
2022/04/18 02:42:12;;;;;;;;;;;11.60;57.20;;;;;;4973284;28;19914;-69
2022/04/18 02:44:38;;;;;;;;;;;11.60;57.40;;;;;;4973526;28;19923;-68
2022/04/18 02:47:03;;;;;;;;;;;11.60;57.10;;;;;;4972488;28;19914;-68
2022/04/18 02:49:30;;;;;;;;;;;11.50;58.10;;;;;;4972786;28;20287;-67
2022/04/18 02:51:56;;;;;;;;;;;11.50;58.40;;;;;;4972472;28;20571;-68
2022/04/18 02:54:21;;;;;;;;;;;11.50;58.20;;;;;;4972745;28;19940;-67
2022/04/18 02:56:47;;;;;;;;;;;11.40;58.90;;;;;;4973112;28;19917;-67
2022/04/18 02:59:12;;;;;;;;;;;11.40;58.80;;;;;;4973336;28;19914;-67
2022/04/18 03:01:38;;;;;;;;;;;11.40;60.50;;;;;;4972423;28;20379;-68
2022/04/18 03:04:04;;;;;;;;;;;11.30;58.30;;;;;;4972075;28;20008;-67
2022/04/18 03:06:29;;;;;;;;;;;11.30;57.80;;;;;;4972411;28;19918;-69
2022/04/18 03:08:55;;;;;;;;;;;11.30;58.90;;;;;;4973349;28;20629;-68
2022/04/18 03:11:20;;;;;;;;;;;11.20;59.80;;;;;;4972820;28;19969;-68
2022/04/18 03:13:46;;;;;;;;;;;11.20;59.80;;;;;;4966339;28;20405;-69
2022/04/18 03:16:12;;;;;;;;;;;11.10;60.40;;;;;;4960322;28;19918;-68
2022/04/18 03:18:38;;;;;;;;;;;11.10;60.10;;;;;;4967592;28;20382;-68
2022/04/18 03:21:04;;;;;;;;;;;11.10;59.30;;;;;;4961901;28;19934;-67
2022/04/18 03:23:30;;;;;;;;;;;11.00;60.80;;;;;;4970785;28;19918;-67
2022/04/18 03:25:57;;;;;;;;;;;11.00;61.40;;;;;;4964779;28;20356;-68
2022/04/18 03:28:22;;;;;;;;;;;11.00;59.20;;;;;;4962123;28;19937;-68
2022/04/18 03:30:48;;;;;;;;;;;11.00;59.80;;;;;;4967549;28;19918;-67
2022/04/18 03:33:13;;;;;;;;;;;10.90;59.70;;;;;;4959789;28;19914;-68
2022/04/18 03:39:50;;;;;;;;;;;10.90;59.90;;;;;;4972308;28;19910;-69
2022/04/18 03:41:08;;;;;;;;;;;10.80;61.50;;;;;;4972654;28;19925;-69
2022/04/18 03:43:35;;;;;;;;;;;10.80;60.50;;;;;;4971759;28;19914;-69
2022/04/18 03:46:00;;;;;;;;;;;10.80;62.30;;;;;;4971865;28;20311;-68
2022/04/18 03:48:26;;;;;;;;;;;10.70;60.60;;;;;;4971449;28;19917;-68
2022/04/18 03:50:51;;;;;;;;;;;10.70;61.80;;;;;;4972778;28;20453;-68
2022/04/18 03:53:17;;;;;;;;;;;10.60;62.60;;;;;;4971408;28;19989;-69
2022/04/18 03:55:42;;;;;;;;;;;10.60;64.00;;;;;;4971870;28;19918;-68
2022/04/18 03:58:08;;;;;;;;;;;10.50;64.00;;;;;;4971961;28;20005;-66
2022/04/18 04:00:35;;;;;;;;;;;10.50;63.00;;;;;;4972515;28;20393;-68
2022/04/18 04:03:00;;;;;;;;;;;10.50;62.10;;;;;;4972419;28;19914;-67
2022/04/18 04:05:25;;;;;;;;;;;10.50;63.50;;;;;;4971397;28;19920;-69
2022/04/18 04:07:51;;;;;;;;;;;10.40;63.30;;;;;;4971555;28;19914;-69
2022/04/18 04:10:16;;;;;;;;;;;10.40;65.00;;;;;;4971215;28;19940;-67
2022/04/18 04:12:42;;;;;;;;;;;10.30;63.10;;;;;;4971303;28;19922;-68
2022/04/18 04:15:08;;;;;;;;;;;10.40;64.80;;;;;;4972517;28;19918;-68
2022/04/18 04:17:33;;;;;;;;;;;10.30;63.40;;;;;;4968410;28;19968;-68
2022/04/18 04:19:59;;;;;;;;;;;10.30;62.50;;;;;;4971385;28;20009;-67
2022/04/18 04:22:24;;;;;;;;;;;10.30;60.50;;;;;;4971050;28;20387;-66
2022/04/18 04:24:50;;;;;;;;;;;10.30;60.70;;;;;;4971520;28;19952;-69
2022/04/18 04:27:15;;;;;;;;;;;10.30;60.90;;;;;;4971728;28;19914;-68
2022/04/18 04:29:41;;;;;;;;;;;10.40;60.40;;;;;;4972476;28;19941;-67
2022/04/18 04:32:07;;;;;;;;;;;10.40;60.70;;;;;;4971067;28;19914;-68
2022/04/18 04:34:32;;;;;;;;;;;10.40;60.90;;;;;;4971771;28;19922;-67
2022/04/18 04:36:58;;;;;;;;;;;10.40;60.50;;;;;;4971537;28;19942;-67
2022/04/18 04:39:23;;;;;;;;;;;10.40;60.00;;;;;;4972056;28;19952;-67
2022/04/18 04:41:49;;;;;;;;;;;10.40;60.80;;;;;;4972290;28;19911;-66
2022/04/18 04:44:14;;;;;;;;;;;10.40;61.30;;;;;;4968665;28;19918;-67
2022/04/18 04:46:39;;;;;;;;;;;10.30;63.50;;;;;;4970534;28;19962;-66
2022/04/18 04:49:05;;;;;;;;;;;10.30;63.50;;;;;;4967304;28;19920;-68
2022/04/18 04:51:30;;;;;;;;;;;10.20;64.70;;;;;;4959239;28;20394;-68
2022/04/18 04:53:56;;;;;;;;;;;10.20;65.90;;;;;;4969241;28;19961;-69
2022/04/18 04:56:24;;;;;;;;;;;10.20;64.20;;;;;;4968218;28;20367;-67
2022/04/18 04:58:49;;;;;;;;;;;10.20;65.10;;;;;;4970541;28;19950;-67
2022/04/18 05:01:15;;;;;;;;;;;10.20;65.10;;;;;;4966618;28;20442;-68
2022/04/18 05:03:41;;;;;;;;;;;10.20;63.00;;;;;;4958244;28;19914;-68
2022/04/18 05:06:07;;;;;;;;;;;10.10;65.10;;;;;;4968497;28;19914;-68
2022/04/18 05:08:32;;;;;;;;;;;10.10;65.10;;;;;;4963395;28;19988;-68
2022/04/18 05:10:59;;;;;;;;;;;10.10;63.40;;;;;;4965870;28;20383;-68
2022/04/18 05:13:26;;;;;;;;;;;10.10;63.40;;;;;;4966479;28;19945;-68
2022/04/18 05:15:51;;;;;;;;;;;10.10;62.50;;;;;;4958299;28;20016;-68
2022/04/18 05:18:16;;;;;;;;;;;10.10;62.10;;;;;;4966929;28;20672;-68
2022/04/18 05:20:42;;;;;;;;;;;10.10;63.00;;;;;;4962962;28;19921;-68
2022/04/18 05:23:07;;;;;;;;;;;10.10;63.80;;;;;;4967090;28;20376;-69
2022/04/18 05:25:33;;;;;;;;;;;10.10;65.50;;;;;;4966892;28;19922;-68
2022/04/18 05:27:58;;;;;;;;;;;10.00;65.80;;;;;;4962070;28;19914;-69
2022/04/18 05:30:24;;;;;;;;;;;10.00;67.00;;;;;;4970309;28;19910;-69
2022/04/18 05:32:49;;;;;;;;;;;10.00;65.20;;;;;;4963091;28;19969;-69
2022/04/18 05:35:15;;;;;;;;;;;10.10;65.40;;;;;;4971225;28;20383;-68
2022/04/18 05:37:41;;;;;;;;;;;10.10;65.80;;;;;;4969915;28;20012;-68
2022/04/18 05:40:07;;;;;;;;;;;10.00;64.80;;;;;;4960851;28;20330;-68
2022/04/18 05:42:32;;;;;;;;;;;10.00;64.40;;;;;;4969223;28;20327;-69
2022/04/18 05:44:58;;;;;;;;;;;10.10;65.20;;;;;;4964018;28;19919;-68
2022/04/18 05:47:24;;;;;;;;;;;10.10;64.10;;;;;;4971784;28;19914;-68
2022/04/18 05:49:49;;;;;;;;;;;10.10;63.60;;;;;;4968624;28;20283;-68
2022/04/18 05:52:15;;;;;;;;;;;10.20;63.00;;;;;;4962764;28;19921;-68
2022/04/18 05:54:40;;;;;;;;;;;10.20;62.90;;;;;;4970433;28;19918;-68
2022/04/18 05:57:06;;;;;;;;;;;10.30;63.70;;;;;;4963187;28;19950;-68
2022/04/18 05:59:32;;;;;;;;;;;10.30;63.30;;;;;;4973068;28;20379;-68
2022/04/18 06:01:57;;;;;;;;;;;10.30;63.60;;;;;;4965012;28;19937;-69
2022/04/18 06:04:23;;;;;;;;;;;10.40;63.20;;;;;;4963730;28;19969;-68
2022/04/18 06:06:48;;;;;;;;;;;10.40;63.00;;;;;;4969628;28;19976;-68
2022/04/18 06:09:14;;;;;;;;;;;10.40;62.50;;;;;;4961837;28;20012;-68
2022/04/18 06:11:40;;;;;;;;;;;10.50;62.40;;;;;;4973915;28;19972;-67
2022/04/18 06:14:07;;;;;;;;;;;10.50;62.70;;;;;;4965919;28;20409;-67
2022/04/18 06:16:33;;;;;;;;;;;10.60;62.30;;;;;;4964512;28;20343;-68
2022/04/18 06:18:58;;;;;;;;;;;10.60;62.20;;;;;;4969346;28;19914;-68
2022/04/18 06:21:24;;;;;;;;;;;10.70;63.00;;;;;;4962031;28;20005;-68
2022/04/18 06:23:49;;;;;;;;;;;10.70;63.70;;;;;;4972962;28;19914;-67
2022/04/18 06:26:15;;;;;;;;;;;10.80;62.30;;;;;;4965687;28;19914;-67
2022/04/18 06:28:40;;;;;;;;;;;10.80;62.20;;;;;;4967133;28;19962;-68
2022/04/18 06:31:06;;;;;;;;;;;10.90;61.60;;;;;;4968451;28;19914;-67
2022/04/18 06:33:34;;;;;;;;;;;10.90;61.70;;;;;;4972374;28;19929;-67
2022/04/18 06:36:00;;;;;;;;;;;10.90;62.40;;;;;;4970323;28;19910;-58
2022/04/18 06:38:26;;;;;;;;;;;11.00;62.60;;;;;;4964635;28;19915;-58
2022/04/18 06:40:51;;;;;;;;;;;11.00;62.90;;;;;;4966828;28;19914;-59
2022/04/18 06:43:17;;;;;;;;;;;11.10;61.70;;;;;;4980999;28;19914;-57
2022/04/18 06:45:42;;;;;;;;;;;11.10;61.50;;;;;;4976998;28;19930;-58
2022/04/18 06:48:07;;;;;;;;;;;11.10;61.70;;;;;;4983819;28;20419;-58
2022/04/18 06:50:33;;;;;;;;;;;11.20;62.00;;;;;;4978888;28;19945;-58
2022/04/18 06:52:58;;;;;;;;;;;11.10;61.60;;;;;;4980233;28;19917;-57
2022/04/18 06:55:24;;;;;;;;;;;11.20;61.90;;;;;;4981675;28;20004;-58
2022/04/18 06:57:50;;;;;;;;;;;11.20;62.00;;;;;;4977026;28;20272;-57
2022/04/18 07:00:16;;;;;;;;;;;11.20;60.70;;;;;;4983204;28;19910;-57
2022/04/18 07:02:50;;;;;;;;;;;11.20;60.80;;;;;;4979932;28;19914;-57
2022/04/18 07:05:15;;;;;;;;;;;11.30;61.20;;;;;;4978375;28;19914;-58
2022/04/18 07:07:42;;;;;;;;;;;11.30;61.20;;;;;;4981079;28;20391;-58
2022/04/18 07:10:08;;;;;;;;;;;11.30;61.40;;;;;;4960615;28;19917;-59
2022/04/18 07:12:34;;;;;;;;;;;11.30;61.10;;;;;;4967630;28;23795;-57
2022/04/18 07:14:59;;;;;;;;;;;11.40;60.90;;;;;;4962654;28;19910;-58
2022/04/18 07:17:25;;;;;;;;;;;11.40;61.10;;;;;;4970248;28;19956;-58
2022/04/18 07:19:51;;;;;;;;;;;11.40;61.30;;;;;;4966450;28;20064;-57
2022/04/18 07:22:16;;;;;;;;;;;11.50;62.40;;;;;;4961123;28;20005;-59
2022/04/18 07:24:42;;;;;;;;;;;11.40;61.50;;;;;;4971021;28;19997;-58
2022/04/18 07:27:07;;;;;;;;;;;11.50;61.40;;;;;;4963530;28;20394;-58
2022/04/18 07:29:33;;;;;;;;;;;11.60;61.10;;;;;;4965687;28;19925;-57
2022/04/18 07:31:58;;;;;;;;;;;11.70;61.30;;;;;;4966631;28;20348;-58
2022/04/18 07:34:24;;;;;;;;;;;11.70;61.30;;;;;;4966723;28;20455;-57
2022/04/18 07:36:49;;;;;;;;;;;11.80;61.50;;;;;;4982273;28;19919;-56
2022/04/18 07:39:15;;;;;;;;;;;11.90;61.70;;;;;;4966816;28;19925;-59
2022/04/18 07:41:40;;;;;;;;;;;11.90;61.20;;;;;;4965640;28;19914;-58
2022/04/18 07:44:06;;;;;;;;;;;12.00;61.10;;;;;;4963953;28;20296;-58
2022/04/18 07:46:32;;;;;;;;;;;12.10;60.40;;;;;;4964500;28;19934;-58
2022/04/18 07:48:58;;;;;;;;;;;12.10;60.50;;;;;;4966041;28;20013;-57
2022/04/18 07:51:42;;;;;;;;;;;12.20;60.40;;;;;;4966241;28;20021;-58
2022/04/18 07:54:09;;;;;;;;;;;12.30;60.40;;;;;;4969969;28;19928;-58
2022/04/18 07:56:35;;;;;;;;;;;12.40;60.40;;;;;;4963232;28;19918;-57
2022/04/18 07:59:00;;;;;;;;;;;12.40;60.00;;;;;;4964056;28;19921;-58
2022/04/18 08:01:26;;;;;;;;;;;12.50;60.50;;;;;;4978398;28;19919;-59
2022/04/18 08:03:51;;;;;;;;;;;12.60;60.10;;;;;;4966259;28;19915;-58
2022/04/18 08:06:17;;;;;;;;;;;12.70;60.20;;;;;;4965877;28;19914;-58
2022/04/18 08:08:43;;;;;;;;;;;12.70;60.20;;;;;;4964998;28;20587;-58
2022/04/18 08:11:14;;;;;;;;;;;12.80;60.70;;;;;;4960580;28;19921;-59
2022/04/18 08:13:40;;;;;;;;;;;12.80;61.20;;;;;;4963101;28;20009;-58
2022/04/18 08:16:06;;;;;;;;;;;12.90;60.80;;;;;;4964585;28;19915;-59
2022/04/18 08:18:31;;;;;;;;;;;12.90;60.50;;;;;;4976268;28;21130;-58
2022/04/18 08:20:57;;;;;;;;;;;13.00;60.30;;;;;;4965738;28;19914;-59
2022/04/18 08:23:23;;;;;;;;;;;13.00;60.40;;;;;;4965099;28;20371;-58
2022/04/18 08:25:48;;;;;;;;;;;13.10;59.10;;;;;;4962484;28;19926;-59
2022/04/18 08:28:14;;;;;;;;;;;13.10;60.20;;;;;;4963993;28;19914;-57
2022/04/18 08:30:40;;;;;;;;;;;13.20;59.10;;;;;;4967994;28;19918;-57
2022/04/18 08:33:05;;;;;;;;;;;13.20;59.00;;;;;;4965539;28;19918;-58
2022/04/18 08:35:32;;;;;;;;;;;13.30;58.90;;;;;;4963165;28;20000;-58
2022/04/18 08:37:59;;;;;;;;;;;13.40;60.00;;;;;;4962373;28;19922;-58
2022/04/18 08:40:24;;;;;;;;;;;13.50;59.70;;;;;;4966626;28;19914;-57
2022/04/18 08:42:53;;;;;;;;;;;13.50;58.60;;;;;;4966222;28;20797;-58
2022/04/18 08:45:18;;;;;;;;;;;13.60;58.40;;;;;;4965101;28;19976;-59
2022/04/18 08:53:13;;;;;;;;;;;13.90;58.80;;;;;;4963408;28;19980;-58
2022/04/18 08:55:40;;;;;;;;;;;14.00;57.90;;;;;;4962719;28;19914;-60
2022/04/18 08:58:05;;;;;;;;;;;14.10;58.80;;;;;;4964493;28;19918;-57
2022/04/18 09:00:31;;;;;;;;;;;14.20;59.20;;;;;;4966408;28;19976;-58
2022/04/18 09:02:57;;;;;;;;;;;14.30;59.80;;;;;;4969323;28;19953;-58
2022/04/18 09:05:22;;;;;;;;;;;14.30;59.50;;;;;;4966966;28;19918;-57
2022/04/18 09:08:05;;;;;;;;;;;14.50;59.40;;;;;;4966451;28;19918;-57
2022/04/18 09:10:31;;;;;;;;;;;14.50;59.00;;;;;;4973413;28;19914;-56
2022/04/18 09:13:06;;;;;;;;;;;14.60;58.60;;;;;;4969772;28;19926;-58
2022/04/18 09:15:34;;;;;;;;;;;14.60;58.70;;;;;;4969566;28;19927;-59
2022/04/18 09:18:07;;;;;;;;;;;14.70;58.10;;;;;;4969566;28;20072;-58
2022/04/18 09:20:39;;;;;;;;;;;14.70;58.80;;;;;;4966769;28;19972;-59
2022/04/18 09:23:05;;;;;;;;;;;14.80;59.00;;;;;;4969022;28;19972;-58
2022/04/18 09:25:36;;;;;;;;;;;14.90;58.60;;;;;;4966388;28;19919;-58
2022/04/18 09:28:02;;;;;;;;;;;15.00;58.20;;;;;;4968502;28;20005;-58
2022/04/18 09:30:31;;;;;;;;;;;15.00;57.80;;;;;;4968722;28;20359;-57
2022/04/18 09:33:01;;;;;;;;;;;15.00;57.80;;;;;;4968229;28;19922;-57
2022/04/18 09:35:27;;;;;;;;;;;15.10;58.70;;;;;;4966536;28;20315;-58
2022/04/18 09:37:55;;;;;;;;;;;15.20;58.10;;;;;;4965256;28;20756;-57
2022/04/18 09:40:21;;;;;;;;;;;15.20;58.00;;;;;;4966656;28;19919;-57
2022/04/18 09:42:47;;;;;;;;;;;15.30;57.90;;;;;;4970086;28;20407;-55
2022/04/18 09:45:12;;;;;;;;;;;15.40;57.80;;;;;;4968443;28;19949;-59
2022/04/18 09:47:38;;;;;;;;;;;15.30;57.10;;;;;;4966989;28;20294;-56
2022/04/18 09:50:59;;;;;;;;;;;15.40;57.90;;;;;;4964968;28;19918;-56
2022/04/18 09:53:05;;;;;;;;;;;15.40;57.30;;;;;;4966104;28;19965;-59
2022/04/18 09:55:30;;;;;;;;;;;15.50;57.10;;;;;;4965703;28;19915;-59
2022/04/18 09:58:05;;;;;;;;;;;15.60;57.50;;;;;;4968405;28;19918;-60
2022/04/18 10:00:30;;;;;;;;;;;15.70;57.70;;;;;;4968514;28;19914;-56
2022/04/18 10:03:00;;;;;;;;;;;15.70;56.50;;;;;;4968489;28;20382;-58
2022/04/18 10:05:27;;;;;;;;;;;15.70;56.60;;;;;;4965684;28;19922;-59
2022/04/18 10:07:53;;;;;;;;;;;15.80;57.40;;;;;;4968709;28;19921;-59
2022/04/18 10:10:19;;;;;;;;;;;15.90;56.30;;;;;;4965864;28;19915;-58
2022/04/18 10:12:44;;;;;;;;;;;15.90;55.80;;;;;;4969770;28;19922;-59
2022/04/18 10:15:10;;;;;;;;;;;15.90;56.40;;;;;;4968494;28;20302;-58
2022/04/18 10:17:38;;;;;;;;;;;16.00;56.60;;;;;;4965357;28;19917;-58
2022/04/18 10:20:22;;;;;;;;;;;16.00;56.30;;;;;;4965022;28;19918;-59
2022/04/18 10:22:57;;;;;;;;;;;16.00;55.20;;;;;;4967483;28;19953;-59
2022/04/18 10:25:29;;;;;;;;;;;16.00;56.30;;;;;;4965496;28;19957;-59
2022/04/18 10:27:59;;;;;;;;;;;16.10;55.70;;;;;;4966611;28;20406;-59
2022/04/18 10:30:25;;;;;;;;;;;16.20;55.80;;;;;;4967315;28;19922;-58
2022/04/18 10:32:51;;;;;;;;;;;16.20;55.30;;;;;;4967804;28;19918;-59
2022/04/18 10:35:16;;;;;;;;;;;16.20;54.70;;;;;;4965447;28;19996;-58
2022/04/18 10:37:42;;;;;;;;;;;16.30;54.70;;;;;;4964900;28;20377;-59
2022/04/18 10:40:08;;;;;;;;;;;16.30;54.80;;;;;;4966245;28;20096;-59
2022/04/18 10:42:33;;;;;;;;;;;16.30;55.60;;;;;;4983740;28;19922;-59
2022/04/18 10:44:59;;;;;;;;;;;16.30;55.40;;;;;;4967667;28;19937;-58
2022/04/18 10:47:25;;;;;;;;;;;16.40;54.50;;;;;;4964814;28;19923;-59
2022/04/18 10:50:23;;;;;;;;;;;16.50;54.90;;;;;;4981071;28;20052;-59
2022/04/18 10:53:08;;;;;;;;;;;16.60;54.30;;;;;;4908989;29;20064;-59
2022/04/18 10:55:34;;;;;;;;;;;16.60;53.40;;;;;;4908503;29;19942;-58
2022/04/18 10:58:12;;;;;;;;;;;16.60;53.30;;;;;;4909857;29;19962;-57
2022/04/18 11:00:53;;;;;;;;;;;16.70;53.70;;;;;;4908951;29;19926;-58
2022/04/18 11:03:37;;;;;;;;;;;16.80;54.10;;;;;;4909405;29;20357;-58
2022/04/18 11:06:03;;;;;;;;;;;16.80;53.00;;;;;;4910475;29;19951;-59
2022/04/18 11:08:29;;;;;;;;;;;16.90;53.30;;;;;;4908756;29;20046;-57
2022/04/18 11:11:27;;;;;;;;;;;16.90;52.00;;;;;;4908711;29;19915;-56
2022/04/18 11:13:53;;;;;;;;;;;16.90;52.30;;;;;;4834596;29;19931;-59
2022/04/18 11:16:22;;;;;;;;;;;16.90;50.50;;;;;;4835680;29;19917;-60
2022/04/18 11:19:07;;;;;;;;;;;16.90;51.30;;;;;;4833954;29;20022;-60
2022/04/18 11:21:51;;;;;;;;;;;17.00;50.20;;;;;;4834764;29;19940;-58
2022/04/18 11:24:35;;;;;;;;;;;17.00;51.30;;;;;;4834690;29;19921;-58
2022/04/18 11:27:01;;;;;;;;;;;17.00;50.30;;;;;;4835844;29;20302;-58
2022/04/18 11:29:27;;;;;;;;;;;17.10;51.00;;;;;;4901554;29;20373;-57
2022/04/18 11:31:53;;;;;;;;;;;17.20;51.50;;;;;;4908088;29;19915;-58
2022/04/18 11:34:18;;;;;;;;;;;17.20;51.20;;;;;;4908242;29;20368;-59
2022/04/18 11:36:44;;;;;;;;;;;17.30;50.30;;;;;;4908188;29;19922;-58
2022/04/18 11:39:12;;;;;;;;;;;17.40;49.00;;;;;;4909687;29;19926;-58
2022/04/18 11:41:38;;;;;;;;;;;17.40;47.60;;;;;;4907695;29;19971;-59
2022/04/18 11:44:03;;;;;;;;;;;17.50;48.70;;;;;;4906866;29;19923;-58
2022/04/18 11:46:29;;;;;;;;;;;17.50;49.70;;;;;;4906956;29;20497;-57
2022/04/18 11:48:55;;;;;;;;;;;17.60;49.90;;;;;;4920927;28;20418;-58
2022/04/18 11:51:42;;;;;;;;;;;17.70;49.70;;;;;;4965815;28;19910;-59
2022/04/18 11:54:08;;;;;;;;;;;17.80;50.00;;;;;;4965482;28;20395;-59
2022/04/18 11:56:33;;;;;;;;;;;17.80;49.40;;;;;;4963020;28;20002;-58
2022/04/18 11:59:03;;;;;;;;;;;17.80;48.10;;;;;;4963678;28;19920;-58
2022/04/18 12:06:57;;;;;;;;;;;18.10;48.10;;;;;;4967191;28;19985;-58
2022/04/18 12:09:23;;;;;;;;;;;18.20;48.90;;;;;;4966079;28;19918;-58
2022/04/18 12:11:49;;;;;;;;;;;18.30;48.30;;;;;;4966140;28;19921;-59
2022/04/18 12:14:16;;;;;;;;;;;18.30;46.00;;;;;;4963867;28;19922;-64
2022/04/18 12:16:42;;;;;;;;;;;18.30;48.40;;;;;;4963684;28;19925;-56
2022/04/18 12:19:11;;;;;;;;;;;18.40;48.30;;;;;;4965480;28;19919;-59
2022/04/18 12:21:37;;;;;;;;;;;18.50;47.20;;;;;;4967396;28;19921;-58
2022/04/18 12:24:02;;;;;;;;;;;18.50;47.30;;;;;;4968996;28;19914;-59
2022/04/18 12:26:35;;;;;;;;;;;18.60;46.40;;;;;;4963842;28;19984;-59
2022/04/18 12:29:05;;;;;;;;;;;18.60;46.70;;;;;;4978894;28;20143;-59
2022/04/18 12:31:31;;;;;;;;;;;18.60;45.60;;;;;;4963353;28;19914;-58
2022/04/18 12:33:56;;;;;;;;;;;18.60;45.60;;;;;;4966995;28;19922;-59
2022/04/18 12:36:26;;;;;;;;;;;18.70;45.80;;;;;;4965285;28;20579;-58
2022/04/18 12:38:52;;;;;;;;;;;18.80;47.00;;;;;;4964275;28;20387;-59
2022/04/18 12:41:27;;;;;;;;;;;18.90;46.80;;;;;;4963642;28;19946;-58
2022/04/18 12:43:53;;;;;;;;;;;19.00;47.20;;;;;;4962429;28;19929;-59
2022/04/18 12:46:23;;;;;;;;;;;19.10;46.20;;;;;;4962713;28;19922;-58
2022/04/18 12:48:51;;;;;;;;;;;19.10;46.70;;;;;;4965830;28;19918;-59
2022/04/18 12:51:16;;;;;;;;;;;19.20;46.80;;;;;;4964621;28;19926;-59
2022/04/18 12:53:49;;;;;;;;;;;19.20;47.20;;;;;;4963495;28;19926;-58
2022/04/18 12:56:20;;;;;;;;;;;19.20;46.80;;;;;;4962965;28;20442;-58
2022/04/18 12:58:46;;;;;;;;;;;19.20;47.20;;;;;;4962951;28;20299;-59
2022/04/18 13:01:20;;;;;;;;;;;19.30;46.30;;;;;;4960103;28;19918;-57
2022/04/18 13:03:47;;;;;;;;;;;19.30;45.40;;;;;;4965529;28;19918;-58
2022/04/18 13:06:13;;;;;;;;;;;19.20;45.50;;;;;;4965008;28;19917;-59
2022/04/18 13:08:40;;;;;;;;;;;19.30;46.60;;;;;;4962577;28;19918;-58
2022/04/18 13:11:06;;;;;;;;;;;19.30;46.20;;;;;;4963004;28;20017;-59
2022/04/18 13:13:31;;;;;;;;;;;19.40;45.90;;;;;;4962464;28;20365;-58
2022/04/18 13:15:57;;;;;;;;;;;19.40;46.50;;;;;;4963714;28;19976;-59
2022/04/18 13:18:24;;;;;;;;;;;19.40;46.60;;;;;;4964128;28;20403;-57
2022/04/18 13:20:49;;;;;;;;;;;19.50;46.10;;;;;;4963545;28;20461;-58
2022/04/18 13:23:15;;;;;;;;;;;19.50;45.30;;;;;;4966086;28;19914;-58
2022/04/18 13:25:41;;;;;;;;;;;19.40;44.40;;;;;;4966248;28;20001;-58
2022/04/18 13:28:07;;;;;;;;;;;19.40;44.30;;;;;;4966251;28;19953;-59
2022/04/18 13:30:39;;;;;;;;;;;19.50;45.10;;;;;;4966802;28;19925;-59
2022/04/18 13:33:07;;;;;;;;;;;19.50;45.10;;;;;;4966029;28;20434;-58
2022/04/18 13:38:21;;;;;;;;;;;19.50;44.50;;;;;;4962709;28;19976;-58
2022/04/18 13:40:47;;;;;;;;;;;19.40;44.50;;;;;;4963622;28;20000;-58
2022/04/18 13:43:14;;;;;;;;;;;19.40;44.20;;;;;;4963198;28;19916;-61
2022/04/18 13:45:40;;;;;;;;;;;19.50;45.10;;;;;;4966386;28;19956;-59
2022/04/18 13:48:06;;;;;;;;;;;19.50;43.90;;;;;;4965004;28;19914;-57
2022/04/18 13:50:31;;;;;;;;;;;19.50;43.80;;;;;;4965890;28;19968;-57
2022/04/18 13:52:57;;;;;;;;;;;19.50;44.60;;;;;;4965283;28;20029;-58
2022/04/18 13:55:22;;;;;;;;;;;19.50;44.30;;;;;;4966967;28;20295;-58
2022/04/18 13:57:48;;;;;;;;;;;19.50;44.70;;;;;;4968619;28;20035;-58
2022/04/18 14:00:14;;;;;;;;;;;19.60;44.70;;;;;;4969182;28;19918;-58
2022/04/18 14:02:40;;;;;;;;;;;19.60;45.20;;;;;;4966415;28;19915;-57
2022/04/18 14:05:05;;;;;;;;;;;19.60;44.40;;;;;;4967339;28;19938;-59
2022/04/18 14:07:31;;;;;;;;;;;19.60;45.00;;;;;;4969906;28;19914;-58
2022/04/18 14:09:56;;;;;;;;;;;19.70;45.20;;;;;;4969465;28;19918;-58
2022/04/18 14:12:22;;;;;;;;;;;19.70;44.30;;;;;;4965458;28;19922;-57
2022/04/18 14:20:23;;;;;;;;;;;19.50;44.00;;;;;;4963503;28;20421;-59
2022/04/18 14:22:49;;;;;;;;;;;19.60;44.80;;;;;;4968500;28;19914;-58
2022/04/18 14:25:15;;;;;;;;;;;19.60;44.20;;;;;;4980571;28;19930;-58
2022/04/18 14:27:40;;;;;;;;;;;19.60;43.70;;;;;;4970011;28;19921;-55
2022/04/18 14:30:06;;;;;;;;;;;19.60;43.80;;;;;;4967736;28;19918;-58
2022/04/18 14:32:32;;;;;;;;;;;19.60;42.90;;;;;;4962987;28;20364;-59
2022/04/18 14:34:57;;;;;;;;;;;19.60;43.20;;;;;;4966361;28;19922;-58
2022/04/18 14:37:24;;;;;;;;;;;19.60;43.70;;;;;;4966382;28;20303;-59
2022/04/18 14:39:51;;;;;;;;;;;19.60;43.20;;;;;;4969341;28;19914;-58
2022/04/18 14:42:16;;;;;;;;;;;19.60;43.60;;;;;;4966460;28;19922;-59